Pagrindinis puslapis
METAR-TAF:

METAR-TAF

Oro uostai :

Gurdaka, Egiptas

platuma: 27-09N, ilguma: 033-43E, Aukštis: 16 m

Dabartinis oras

Ataskaita buvo paskelbta 1 valandą ir 10 minutes, ne 06:00 UTC
Vėjas 15 kt iš Šiaurės Vakarų
Temperatūra 33°C
Drėgmė 30%
Slėgis 1010 hPa
Matomumas 10 km arba daugiau
nėra debesų žemiau 1500 m ir nėra kamuolinių lietaus debesų

METAR: HEGN 240600Z 31015KT CAVOK 33/13 Q1010 NOSIG

Laikas: 09:10 (07:10 UTC)

Prognozė

Ataskaita buvo paskelbta 2 valandos ir 10 minutes, ne 05:00 UTC
Prognozė galioja nuo 24 metu 06 UTC su 25 metu 12 UTC
Vėjas 12 kt iš Šiaurės su gūsio iki 25 kt
Matomumas 10 km arba daugiau
nėra debesų žemiau 1500 m ir nėra kamuolinių lietaus debesų
Tikimybė 30% :
Laikinai
nuo 24 metu 09 UTC su 24 metu 15 UTC
Matomumas: 4000 m
Smėlis,

TAF: HEGN 240500Z 2406/2512 35012G25KT CAVOK PROB30 TEMPO 2409/2415 4000 SA NSC

Orai ataskaitas ir orų prognozės (METAR, TAF).

turimą stotys yra geltonos ir raudonos taškus žemėlapyje.

Perkelti pele per norėdami pamatyti stoties vardą.

Tada spustelėkite, norėdami matyti oro stebėjimo ir prognozės.

Norėdami pakeisti žemėlapį: spustelėkite ant žalios mygtukų su juodo kryžiaus žemyn,; žalią mygtuką su brūkšneliu, jei norite nutolinti; arba žalių rodyklių gretimoms žemėlapius.


METAR-TAF: